UAL1412 KMFR-KDEN
Flight info
| Callsign | UAL1412 |
|---|---|
| Flight time | N/A |
| Altitude | 33000 |
| Route | JKSN1 OED V122 LMT LOKEY BVL TCH KAMPR LONGZ4 |
| Aircraft | B738/M-SDE2E3FGHIRWXY/LB1 |
Departure
| Time | 2026-04-26 18:28 |
|---|---|
| Airport | Rogue Valley International-Medford Airport (KMFR) |
Arrival
| Time | N/A |
|---|---|
| Airport | Denver International Airport (KDEN) |
| Time | Latitude | Longitude | Altitude | Speed | Heading |
|---|---|---|---|---|---|
| 2026-04-26 17:48 | 42.36912 | -122.87360 | 1316 ft | 0 kts | 248° |
| 2026-04-26 18:17 | 42.36916 | -122.87344 | 1323 ft | 2 kts | 248° |
| 2026-04-26 18:17 | 42.36922 | -122.87325 | 1323 ft | 2 kts | 248° |
| 2026-04-26 18:17 | 42.36927 | -122.87310 | 1324 ft | 0 kts | 248° |
| 2026-04-26 18:18 | 42.36932 | -122.87296 | 1324 ft | 2 kts | 222° |
| 2026-04-26 18:18 | 42.36946 | -122.87286 | 1324 ft | 2 kts | 190° |
| 2026-04-26 18:18 | 42.36959 | -122.87286 | 1324 ft | 0 kts | 162° |
| 2026-04-26 18:18 | 42.36964 | -122.87289 | 1324 ft | 1 kts | 156° |
| 2026-04-26 18:19 | 42.36966 | -122.87290 | 1324 ft | 0 kts | 157° |
| 2026-04-26 18:25 | 42.36965 | -122.87289 | 1324 ft | 0 kts | 157° |
| 2026-04-26 18:25 | 42.36949 | -122.87271 | 1324 ft | 5 kts | 129° |
| 2026-04-26 18:25 | 42.36918 | -122.87220 | 1325 ft | 8 kts | 129° |
| 2026-04-26 18:26 | 42.36859 | -122.87162 | 1326 ft | 12 kts | 157° |
| 2026-04-26 18:26 | 42.36773 | -122.87116 | 1327 ft | 15 kts | 159° |
| 2026-04-26 18:26 | 42.36661 | -122.87058 | 1328 ft | 19 kts | 158° |
| 2026-04-26 18:26 | 42.36538 | -122.86991 | 1330 ft | 17 kts | 159° |
| 2026-04-26 18:27 | 42.36348 | -122.86839 | 1333 ft | 9 kts | 84° |
| 2026-04-26 18:27 | 42.36374 | -122.86748 | 1335 ft | 9 kts | 28° |
| 2026-04-26 18:27 | 42.36402 | -122.86753 | 1334 ft | 2 kts | 338° |
| 2026-04-26 18:28 | 42.36633 | -122.86876 | 1332 ft | 75 kts | 339° |
| 2026-04-26 18:28 | 42.37352 | -122.87256 | 1320 ft | 145 kts | 339° |
| 2026-04-26 18:28 | 42.38441 | -122.87835 | 1656 ft | 177 kts | 338° |
| 2026-04-26 18:28 | 42.39571 | -122.88475 | 2470 ft | 183 kts | 337° |
| 2026-04-26 18:29 | 42.40759 | -122.89186 | 3146 ft | 194 kts | 336° |
| 2026-04-26 18:29 | 42.42057 | -122.89929 | 3636 ft | 210 kts | 340° |
| 2026-04-26 18:29 | 42.43509 | -122.90506 | 4150 ft | 226 kts | 347° |
| 2026-04-26 18:29 | 42.45103 | -122.90936 | 4675 ft | 243 kts | 351° |
| 2026-04-26 18:30 | 42.46851 | -122.91266 | 5239 ft | 260 kts | 353° |
| 2026-04-26 18:30 | 42.48700 | -122.91490 | 5858 ft | 272 kts | 353° |
| 2026-04-26 18:30 | 42.50584 | -122.91807 | 6681 ft | 276 kts | 352° |
| 2026-04-26 18:30 | 42.52486 | -122.92148 | 7474 ft | 280 kts | 352° |
| 2026-04-26 18:31 | 42.54423 | -122.92494 | 8263 ft | 283 kts | 352° |
| 2026-04-26 18:31 | 42.56390 | -122.92845 | 9040 ft | 286 kts | 352° |
| 2026-04-26 18:31 | 42.58376 | -122.93199 | 9803 ft | 289 kts | 352° |
| 2026-04-26 18:31 | 42.60383 | -122.93428 | 10455 ft | 297 kts | 3° |
| 2026-04-26 18:32 | 42.62398 | -122.92542 | 10862 ft | 315 kts | 32° |
| 2026-04-26 18:32 | 42.63908 | -122.90329 | 11250 ft | 333 kts | 61° |
| 2026-04-26 18:32 | 42.64540 | -122.87253 | 11638 ft | 350 kts | 85° |
| 2026-04-26 18:32 | 42.64381 | -122.83865 | 12030 ft | 367 kts | 101° |
| 2026-04-26 18:33 | 42.63461 | -122.80624 | 12628 ft | 375 kts | 118° |
| 2026-04-26 18:33 | 42.62123 | -122.77605 | 13372 ft | 378 kts | 122° |
| 2026-04-26 18:33 | 42.60698 | -122.74580 | 14121 ft | 381 kts | 122° |
| 2026-04-26 18:33 | 42.59278 | -122.71512 | 14822 ft | 385 kts | 121° |
| 2026-04-26 18:34 | 42.57870 | -122.68403 | 15485 ft | 389 kts | 121° |
| 2026-04-26 18:34 | 42.56463 | -122.65250 | 16129 ft | 394 kts | 120° |
| 2026-04-26 18:34 | 42.55053 | -122.62061 | 16756 ft | 398 kts | 120° |
| 2026-04-26 18:34 | 42.53609 | -122.58785 | 17369 ft | 402 kts | 120° |
| 2026-04-26 18:35 | 42.52179 | -122.55535 | 17957 ft | 407 kts | 120° |
| 2026-04-26 18:35 | 42.50713 | -122.52204 | 18547 ft | 411 kts | 120° |
| 2026-04-26 18:35 | 42.49240 | -122.48859 | 19115 ft | 416 kts | 120° |
| 2026-04-26 18:35 | 42.48267 | -122.46648 | 19511 ft | 418 kts | 120° |
| 2026-04-26 18:36 | 42.46251 | -122.42082 | 20346 ft | 424 kts | 120° |
| 2026-04-26 18:36 | 42.44741 | -122.38664 | 20934 ft | 429 kts | 120° |
| 2026-04-26 18:36 | 42.43205 | -122.35191 | 21491 ft | 433 kts | 120° |
| 2026-04-26 18:36 | 42.41632 | -122.31640 | 22036 ft | 437 kts | 121° |
| 2026-04-26 18:37 | 42.40059 | -122.28092 | 22544 ft | 440 kts | 121° |
| 2026-04-26 18:37 | 42.38493 | -122.24561 | 23011 ft | 444 kts | 121° |
| 2026-04-26 18:37 | 42.36898 | -122.20974 | 23454 ft | 445 kts | 121° |
| 2026-04-26 18:37 | 42.35316 | -122.17418 | 23877 ft | 446 kts | 121° |
| 2026-04-26 18:38 | 42.34233 | -122.14986 | 24182 ft | 447 kts | 121° |
| 2026-04-26 18:38 | 42.32102 | -122.10204 | 24802 ft | 450 kts | 121° |
| 2026-04-26 18:38 | 42.30470 | -122.06548 | 25273 ft | 452 kts | 122° |
| 2026-04-26 18:38 | 42.28850 | -122.02924 | 25740 ft | 455 kts | 121° |
| 2026-04-26 18:39 | 42.27186 | -121.99206 | 26209 ft | 457 kts | 121° |
| 2026-04-26 18:39 | 42.25514 | -121.95474 | 26670 ft | 460 kts | 121° |
| 2026-04-26 18:39 | 42.23840 | -121.91741 | 27122 ft | 463 kts | 121° |
| 2026-04-26 18:39 | 42.22155 | -121.87991 | 27557 ft | 466 kts | 121° |
| 2026-04-26 18:40 | 42.20444 | -121.84186 | 27990 ft | 469 kts | 121° |
| 2026-04-26 18:40 | 42.18737 | -121.80396 | 28585 ft | 466 kts | 121° |
| 2026-04-26 18:40 | 42.17029 | -121.76607 | 29138 ft | 465 kts | 121° |
| 2026-04-26 18:40 | 42.15353 | -121.72900 | 29667 ft | 464 kts | 122° |
| 2026-04-26 18:41 | 42.13488 | -121.69247 | 30247 ft | 462 kts | 126° |
| 2026-04-26 18:41 | 42.11559 | -121.65809 | 30800 ft | 460 kts | 128° |
| 2026-04-26 18:41 | 42.09563 | -121.62341 | 31340 ft | 459 kts | 128° |
| 2026-04-26 18:41 | 42.07584 | -121.58914 | 31817 ft | 458 kts | 128° |
| 2026-04-26 18:42 | 42.05644 | -121.55547 | 32262 ft | 457 kts | 128° |
| 2026-04-26 18:42 | 42.03655 | -121.52084 | 32708 ft | 456 kts | 128° |
| 2026-04-26 18:42 | 42.01682 | -121.48640 | 32914 ft | 460 kts | 128° |
| 2026-04-26 18:42 | 41.99709 | -121.45192 | 32910 ft | 461 kts | 128° |
| 2026-04-26 18:43 | 41.95737 | -121.38242 | 32920 ft | 455 kts | 128° |
| 2026-04-26 18:43 | 41.91846 | -121.31435 | 32902 ft | 455 kts | 128° |
| 2026-04-26 18:44 | 41.87926 | -121.24587 | 32905 ft | 456 kts | 129° |
| 2026-04-26 18:44 | 41.83989 | -121.17725 | 32907 ft | 457 kts | 129° |
| 2026-04-26 18:45 | 41.80072 | -121.10908 | 32904 ft | 456 kts | 129° |
| 2026-04-26 18:45 | 41.76157 | -121.04111 | 32900 ft | 456 kts | 129° |
| 2026-04-26 18:46 | 41.72895 | -120.98460 | 32898 ft | 456 kts | 129° |
| 2026-04-26 18:46 | 41.68319 | -120.90546 | 32900 ft | 456 kts | 129° |
| 2026-04-26 18:47 | 41.64396 | -120.83781 | 32904 ft | 456 kts | 129° |
| 2026-04-26 18:47 | 41.60474 | -120.77032 | 32906 ft | 456 kts | 129° |
| 2026-04-26 18:48 | 41.56519 | -120.70241 | 32905 ft | 456 kts | 129° |
| 2026-04-26 18:48 | 41.52578 | -120.63490 | 32899 ft | 456 kts | 129° |
| 2026-04-26 18:49 | 41.48647 | -120.56770 | 32894 ft | 455 kts | 129° |
| 2026-04-26 18:49 | 41.44678 | -120.50000 | 32891 ft | 455 kts | 129° |
| 2026-04-26 18:50 | 41.40749 | -120.43313 | 32901 ft | 455 kts | 129° |
| 2026-04-26 18:50 | 41.36801 | -120.36609 | 32923 ft | 455 kts | 130° |
| 2026-04-26 18:51 | 41.32867 | -120.29944 | 32950 ft | 455 kts | 130° |
| 2026-04-26 18:51 | 41.29572 | -120.24372 | 32977 ft | 455 kts | 130° |
| 2026-04-26 18:52 | 41.25607 | -120.17681 | 32976 ft | 455 kts | 130° |
| 2026-04-26 18:52 | 41.21016 | -120.09950 | 32942 ft | 455 kts | 130° |
| 2026-04-26 18:53 | 41.17091 | -120.03359 | 32917 ft | 455 kts | 130° |
| 2026-04-26 18:53 | 41.13145 | -119.96745 | 32903 ft | 455 kts | 130° |
| 2026-04-26 18:54 | 41.09873 | -119.89560 | 32907 ft | 460 kts | 114° |
| 2026-04-26 18:54 | 41.08930 | -119.85445 | 32911 ft | 463 kts | 103° |
| 2026-04-26 18:54 | 41.08470 | -119.81250 | 32915 ft | 465 kts | 97° |
| 2026-04-26 18:55 | 41.08062 | -119.72694 | 32917 ft | 467 kts | 94° |
| 2026-04-26 18:55 | 41.07841 | -119.64072 | 32926 ft | 467 kts | 93° |
| 2026-04-26 18:56 | 41.07593 | -119.55463 | 32937 ft | 466 kts | 94° |
| 2026-04-26 18:56 | 41.07314 | -119.46912 | 32948 ft | 467 kts | 94° |
| 2026-04-26 18:57 | 41.07115 | -119.41177 | 32941 ft | 467 kts | 94° |
| 2026-04-26 18:57 | 41.06702 | -119.29736 | 32919 ft | 467 kts | 95° |
| 2026-04-26 18:58 | 41.06379 | -119.21120 | 32903 ft | 467 kts | 95° |
| 2026-04-26 18:58 | 41.06050 | -119.12526 | 32892 ft | 467 kts | 95° |
| 2026-04-26 18:59 | 41.05710 | -119.03849 | 32885 ft | 468 kts | 95° |
| 2026-04-26 18:59 | 41.05365 | -118.95217 | 32877 ft | 468 kts | 95° |
| 2026-04-26 19:00 | 41.05014 | -118.86583 | 32870 ft | 468 kts | 95° |
| 2026-04-26 19:00 | 41.04657 | -118.77988 | 32864 ft | 468 kts | 95° |
| 2026-04-26 19:01 | 41.04296 | -118.69429 | 32866 ft | 467 kts | 95° |
| 2026-04-26 19:01 | 41.03926 | -118.60820 | 32874 ft | 467 kts | 95° |
| 2026-04-26 19:02 | 41.03551 | -118.52246 | 32882 ft | 467 kts | 95° |
| 2026-04-26 19:02 | 41.03233 | -118.45072 | 32885 ft | 467 kts | 96° |
| 2026-04-26 19:03 | 41.02777 | -118.35001 | 32859 ft | 467 kts | 96° |
| 2026-04-26 19:03 | 41.02384 | -118.26433 | 32836 ft | 467 kts | 96° |
| 2026-04-26 19:04 | 41.01982 | -118.17831 | 32829 ft | 467 kts | 96° |
| 2026-04-26 19:04 | 41.01573 | -118.09224 | 32833 ft | 467 kts | 96° |
| 2026-04-26 19:05 | 41.00951 | -117.96370 | 32841 ft | 467 kts | 96° |
| 2026-04-26 19:06 | 41.00526 | -117.87767 | 32840 ft | 467 kts | 96° |
| 2026-04-26 19:06 | 41.00097 | -117.79179 | 32843 ft | 467 kts | 96° |
| 2026-04-26 19:07 | 40.99660 | -117.70591 | 32843 ft | 467 kts | 97° |
| 2026-04-26 19:07 | 40.99220 | -117.62060 | 32833 ft | 467 kts | 97° |
| 2026-04-26 19:08 | 40.98773 | -117.53517 | 32824 ft | 466 kts | 97° |
| 2026-04-26 19:08 | 40.98317 | -117.44942 | 32821 ft | 466 kts | 97° |
| 2026-04-26 19:09 | 40.97855 | -117.36343 | 32822 ft | 466 kts | 97° |
| 2026-04-26 19:09 | 40.97386 | -117.27753 | 32825 ft | 465 kts | 97° |
| 2026-04-26 19:10 | 40.96910 | -117.19165 | 32828 ft | 466 kts | 97° |
| 2026-04-26 19:10 | 40.96431 | -117.10628 | 32830 ft | 466 kts | 97° |
| 2026-04-26 19:11 | 40.95943 | -117.02030 | 32826 ft | 465 kts | 97° |
| 2026-04-26 19:11 | 40.95451 | -116.93484 | 32828 ft | 465 kts | 97° |
| 2026-04-26 19:12 | 40.94955 | -116.84976 | 32840 ft | 465 kts | 97° |
| 2026-04-26 19:12 | 40.94449 | -116.76405 | 32856 ft | 465 kts | 97° |
| 2026-04-26 19:13 | 40.93939 | -116.67887 | 32866 ft | 465 kts | 97° |
| 2026-04-26 19:13 | 40.93423 | -116.59368 | 32868 ft | 464 kts | 97° |
| 2026-04-26 19:14 | 40.92903 | -116.50881 | 32869 ft | 464 kts | 97° |
| 2026-04-26 19:14 | 40.92371 | -116.42318 | 32877 ft | 463 kts | 97° |
| 2026-04-26 19:15 | 40.92106 | -116.38084 | 32886 ft | 464 kts | 97° |
| 2026-04-26 19:15 | 40.91291 | -116.25228 | 32914 ft | 463 kts | 98° |
| 2026-04-26 19:16 | 40.90743 | -116.16693 | 32899 ft | 463 kts | 97° |
| 2026-04-26 19:16 | 40.90190 | -116.08195 | 32871 ft | 463 kts | 97° |
| 2026-04-26 19:17 | 40.89725 | -116.01119 | 32858 ft | 463 kts | 97° |
| 2026-04-26 19:17 | 40.89072 | -115.91294 | 32854 ft | 462 kts | 97° |
| 2026-04-26 19:18 | 40.88504 | -115.82861 | 32858 ft | 461 kts | 97° |
| 2026-04-26 19:18 | 40.87927 | -115.74372 | 32866 ft | 461 kts | 97° |
| 2026-04-26 19:19 | 40.87346 | -115.65926 | 32854 ft | 461 kts | 97° |
| 2026-04-26 19:19 | 40.86823 | -115.58396 | 32835 ft | 461 kts | 97° |
| 2026-04-26 19:20 | 40.86232 | -115.49970 | 32816 ft | 461 kts | 97° |
| 2026-04-26 19:20 | 40.85635 | -115.41553 | 32831 ft | 461 kts | 97° |
| 2026-04-26 19:21 | 40.84981 | -115.32420 | 32867 ft | 460 kts | 98° |
| 2026-04-26 19:21 | 40.84369 | -115.23978 | 32911 ft | 460 kts | 98° |
| 2026-04-26 19:22 | 40.83755 | -115.15592 | 32892 ft | 460 kts | 98° |
| 2026-04-26 19:22 | 40.83138 | -115.07233 | 32842 ft | 459 kts | 98° |
| 2026-04-26 19:23 | 40.82512 | -114.98855 | 32796 ft | 459 kts | 98° |
| 2026-04-26 19:23 | 40.81878 | -114.90445 | 32778 ft | 459 kts | 98° |
| 2026-04-26 19:24 | 40.81240 | -114.82076 | 32778 ft | 459 kts | 98° |
| 2026-04-26 19:24 | 40.80271 | -114.69498 | 32783 ft | 458 kts | 98° |
| 2026-04-26 19:25 | 40.79838 | -114.63938 | 32783 ft | 457 kts | 98° |
| 2026-04-26 19:25 | 40.78963 | -114.52805 | 32783 ft | 457 kts | 97° |
| 2026-04-26 19:26 | 40.78296 | -114.44414 | 32788 ft | 456 kts | 97° |
| 2026-04-26 19:26 | 40.77625 | -114.36038 | 32812 ft | 456 kts | 97° |
| 2026-04-26 19:27 | 40.76946 | -114.27655 | 32843 ft | 456 kts | 98° |
| 2026-04-26 19:27 | 40.76257 | -114.19222 | 32857 ft | 456 kts | 98° |
| 2026-04-26 19:28 | 40.75568 | -114.10858 | 32835 ft | 456 kts | 98° |
| 2026-04-26 19:28 | 40.74865 | -114.02414 | 32806 ft | 455 kts | 98° |
| 2026-04-26 19:29 | 40.74165 | -113.94065 | 32782 ft | 455 kts | 98° |
| 2026-04-26 19:29 | 40.73457 | -113.85702 | 32775 ft | 454 kts | 98° |
| 2026-04-26 19:30 | 40.72860 | -113.77319 | 32782 ft | 454 kts | 93° |
| 2026-04-26 19:30 | 40.73049 | -113.70297 | 32786 ft | 456 kts | 86° |
| 2026-04-26 19:31 | 40.73764 | -113.60442 | 32785 ft | 456 kts | 85° |
| 2026-04-26 19:31 | 40.74415 | -113.52048 | 32783 ft | 456 kts | 85° |
| 2026-04-26 19:32 | 40.75057 | -113.43632 | 32778 ft | 457 kts | 85° |
| 2026-04-26 19:32 | 40.75690 | -113.35204 | 32773 ft | 457 kts | 85° |
| 2026-04-26 19:33 | 40.76315 | -113.26757 | 32767 ft | 457 kts | 86° |
| 2026-04-26 19:33 | 40.76929 | -113.18365 | 32760 ft | 457 kts | 86° |
| 2026-04-26 19:34 | 40.77542 | -113.09907 | 32756 ft | 457 kts | 86° |
| 2026-04-26 19:34 | 40.78140 | -113.01546 | 32754 ft | 457 kts | 86° |
| 2026-04-26 19:35 | 40.78731 | -112.93197 | 32749 ft | 457 kts | 86° |
| 2026-04-26 19:35 | 40.79318 | -112.84833 | 32739 ft | 457 kts | 86° |
| 2026-04-26 19:36 | 40.79803 | -112.77853 | 32730 ft | 457 kts | 86° |
| 2026-04-26 19:36 | 40.80473 | -112.68091 | 32725 ft | 457 kts | 86° |
| 2026-04-26 19:37 | 40.81040 | -112.59750 | 32724 ft | 457 kts | 86° |
| 2026-04-26 19:37 | 40.81600 | -112.51403 | 32722 ft | 457 kts | 86° |
| 2026-04-26 19:38 | 40.82156 | -112.43031 | 32720 ft | 458 kts | 86° |
| 2026-04-26 19:38 | 40.82715 | -112.34526 | 32718 ft | 457 kts | 87° |
| 2026-04-26 19:39 | 40.83261 | -112.26117 | 32716 ft | 457 kts | 87° |
| 2026-04-26 19:39 | 40.83804 | -112.17663 | 32713 ft | 457 kts | 87° |
| 2026-04-26 19:40 | 40.84340 | -112.09231 | 32710 ft | 457 kts | 87° |
| 2026-04-26 19:40 | 40.84862 | -112.00789 | 32710 ft | 457 kts | 88° |
| 2026-04-26 19:41 | 40.84849 | -111.92393 | 32717 ft | 454 kts | 95° |
| 2026-04-26 19:41 | 40.84494 | -111.85449 | 32739 ft | 454 kts | 96° |
| 2026-04-26 19:42 | 40.83966 | -111.75645 | 32788 ft | 454 kts | 96° |
| 2026-04-26 19:42 | 40.83526 | -111.67259 | 32801 ft | 455 kts | 96° |
| 2026-04-26 19:43 | 40.83089 | -111.58833 | 32799 ft | 454 kts | 96° |
| 2026-04-26 19:43 | 40.82654 | -111.50462 | 32813 ft | 454 kts | 96° |
| 2026-04-26 19:44 | 40.82214 | -111.42057 | 32829 ft | 455 kts | 96° |
| 2026-04-26 19:44 | 40.81770 | -111.33686 | 32811 ft | 455 kts | 97° |
| 2026-04-26 19:45 | 40.81316 | -111.25244 | 32833 ft | 454 kts | 97° |
| 2026-04-26 19:45 | 40.80862 | -111.16904 | 32870 ft | 454 kts | 97° |
| 2026-04-26 19:46 | 40.80399 | -111.08489 | 32934 ft | 454 kts | 97° |
| 2026-04-26 19:46 | 40.79930 | -111.00102 | 33009 ft | 454 kts | 97° |
| 2026-04-26 19:47 | 40.79536 | -110.93117 | 33062 ft | 455 kts | 97° |
| 2026-04-26 19:47 | 40.78975 | -110.83320 | 32963 ft | 455 kts | 97° |
| 2026-04-26 19:48 | 40.78484 | -110.74854 | 32803 ft | 454 kts | 97° |
| 2026-04-26 19:48 | 40.77992 | -110.66483 | 32726 ft | 453 kts | 98° |
| 2026-04-26 19:49 | 40.77496 | -110.58154 | 32702 ft | 454 kts | 98° |
| 2026-04-26 19:49 | 40.76991 | -110.49772 | 32685 ft | 454 kts | 98° |
| 2026-04-26 19:50 | 40.76477 | -110.41354 | 32672 ft | 454 kts | 98° |
| 2026-04-26 19:50 | 40.75961 | -110.32987 | 32658 ft | 454 kts | 99° |
| 2026-04-26 19:51 | 40.75438 | -110.24609 | 32652 ft | 454 kts | 99° |
| 2026-04-26 19:51 | 40.74911 | -110.16256 | 32730 ft | 453 kts | 99° |
| 2026-04-26 19:52 | 40.74377 | -110.07903 | 32860 ft | 454 kts | 99° |
| 2026-04-26 19:52 | 40.73833 | -109.99495 | 32978 ft | 454 kts | 99° |
| 2026-04-26 19:53 | 40.73288 | -109.91155 | 33060 ft | 455 kts | 99° |
| 2026-04-26 19:53 | 40.72732 | -109.82753 | 33097 ft | 456 kts | 99° |
| 2026-04-26 19:54 | 40.72168 | -109.74324 | 33064 ft | 457 kts | 99° |
| 2026-04-26 19:54 | 40.71598 | -109.65878 | 32976 ft | 457 kts | 99° |
| 2026-04-26 19:55 | 40.70970 | -109.57469 | 32926 ft | 455 kts | 100° |
| 2026-04-26 19:55 | 40.70363 | -109.49018 | 32916 ft | 459 kts | 98° |
| 2026-04-26 19:56 | 40.69745 | -109.40648 | 32900 ft | 457 kts | 99° |
| 2026-04-26 19:56 | 40.69187 | -109.32175 | 32883 ft | 458 kts | 99° |
| 2026-04-26 19:57 | 40.68626 | -109.23804 | 32852 ft | 458 kts | 100° |
| 2026-04-26 19:57 | 40.68048 | -109.15495 | 32844 ft | 459 kts | 100° |
| 2026-04-26 19:58 | 40.67452 | -109.07134 | 32843 ft | 458 kts | 100° |
| 2026-04-26 19:58 | 40.66838 | -108.98774 | 32838 ft | 458 kts | 100° |
| 2026-04-26 19:59 | 40.66300 | -108.90369 | 32822 ft | 461 kts | 99° |
| 2026-04-26 19:59 | 40.65787 | -108.81953 | 32802 ft | 461 kts | 99° |
| 2026-04-26 20:00 | 40.65251 | -108.73492 | 32781 ft | 461 kts | 99° |
| 2026-04-26 20:00 | 40.64699 | -108.65035 | 32782 ft | 461 kts | 99° |
| 2026-04-26 20:01 | 40.64132 | -108.56497 | 32785 ft | 462 kts | 99° |
| 2026-04-26 20:01 | 40.63559 | -108.48009 | 32781 ft | 464 kts | 99° |
| 2026-04-26 20:02 | 40.62974 | -108.39436 | 32792 ft | 465 kts | 99° |
| 2026-04-26 20:02 | 40.62477 | -108.32251 | 32806 ft | 465 kts | 100° |
| 2026-04-26 20:03 | 40.61783 | -108.22290 | 32812 ft | 465 kts | 100° |
| 2026-04-26 20:03 | 40.61175 | -108.13686 | 32814 ft | 465 kts | 100° |
| 2026-04-26 20:04 | 40.60562 | -108.05109 | 32790 ft | 466 kts | 100° |
| 2026-04-26 20:04 | 40.59943 | -107.96536 | 32758 ft | 467 kts | 100° |
| 2026-04-26 20:05 | 40.59313 | -107.87890 | 32762 ft | 468 kts | 100° |
| 2026-04-26 20:05 | 40.58677 | -107.79263 | 32776 ft | 469 kts | 100° |
| 2026-04-26 20:06 | 40.58039 | -107.70687 | 32787 ft | 469 kts | 100° |
| 2026-04-26 20:06 | 40.57394 | -107.62083 | 32790 ft | 469 kts | 100° |
| 2026-04-26 20:07 | 40.56746 | -107.53455 | 32786 ft | 469 kts | 100° |
| 2026-04-26 20:07 | 40.56095 | -107.44866 | 32783 ft | 469 kts | 100° |
| 2026-04-26 20:08 | 40.55435 | -107.36258 | 32789 ft | 469 kts | 100° |
| 2026-04-26 20:08 | 40.54765 | -107.27607 | 32795 ft | 468 kts | 101° |
| 2026-04-26 20:09 | 40.54094 | -107.19032 | 32799 ft | 468 kts | 101° |
| 2026-04-26 20:09 | 40.53416 | -107.10441 | 32805 ft | 468 kts | 101° |
| 2026-04-26 20:10 | 40.52729 | -107.01820 | 32815 ft | 468 kts | 101° |
| 2026-04-26 20:10 | 40.52037 | -106.93227 | 32838 ft | 468 kts | 101° |
| 2026-04-26 20:11 | 40.51340 | -106.84643 | 32868 ft | 468 kts | 101° |
| 2026-04-26 20:12 | 40.50282 | -106.71781 | 32927 ft | 469 kts | 101° |
| 2026-04-26 20:12 | 40.49566 | -106.63174 | 32912 ft | 469 kts | 101° |
| 2026-04-26 20:13 | 40.48843 | -106.54546 | 32786 ft | 467 kts | 101° |
| 2026-04-26 20:13 | 40.48482 | -106.50295 | 32360 ft | 464 kts | 101° |
| 2026-04-26 20:13 | 40.48109 | -106.46075 | 31640 ft | 469 kts | 101° |
| 2026-04-26 20:13 | 40.47715 | -106.41718 | 30774 ft | 475 kts | 101° |
| 2026-04-26 20:14 | 40.47322 | -106.37382 | 30120 ft | 475 kts | 101° |
| 2026-04-26 20:14 | 40.46930 | -106.33041 | 29473 ft | 474 kts | 102° |
| 2026-04-26 20:14 | 40.46544 | -106.28723 | 28815 ft | 473 kts | 102° |
| 2026-04-26 20:14 | 40.46210 | -106.24404 | 28025 ft | 473 kts | 99° |
| 2026-04-26 20:15 | 40.45930 | -106.20094 | 27326 ft | 467 kts | 100° |
| 2026-04-26 20:15 | 40.45542 | -106.15830 | 26774 ft | 456 kts | 102° |
| 2026-04-26 20:15 | 40.45135 | -106.11752 | 26361 ft | 443 kts | 102° |
| 2026-04-26 20:15 | 40.44750 | -106.07741 | 25997 ft | 432 kts | 102° |
| 2026-04-26 20:16 | 40.44385 | -106.03847 | 25640 ft | 422 kts | 102° |
| 2026-04-26 20:16 | 40.44028 | -105.99991 | 25281 ft | 418 kts | 101° |
| 2026-04-26 20:16 | 40.43674 | -105.96163 | 24924 ft | 420 kts | 101° |
| 2026-04-26 20:16 | 40.43317 | -105.92268 | 24786 ft | 421 kts | 101° |
| 2026-04-26 20:17 | 40.42904 | -105.88393 | 24447 ft | 426 kts | 104° |
| 2026-04-26 20:17 | 40.42331 | -105.84565 | 24155 ft | 421 kts | 106° |
| 2026-04-26 20:17 | 40.41703 | -105.80770 | 23867 ft | 417 kts | 107° |
| 2026-04-26 20:17 | 40.41284 | -105.78265 | 23685 ft | 415 kts | 107° |
| 2026-04-26 20:18 | 40.40450 | -105.73247 | 23222 ft | 416 kts | 107° |
| 2026-04-26 20:18 | 40.39840 | -105.69530 | 22723 ft | 413 kts | 106° |
| 2026-04-26 20:18 | 40.39243 | -105.65861 | 22172 ft | 411 kts | 106° |
| 2026-04-26 20:18 | 40.38654 | -105.62211 | 21871 ft | 400 kts | 106° |
| 2026-04-26 20:19 | 40.38096 | -105.58732 | 21618 ft | 390 kts | 106° |
| 2026-04-26 20:19 | 40.37536 | -105.55251 | 21277 ft | 383 kts | 106° |
| 2026-04-26 20:19 | 40.36986 | -105.51841 | 20808 ft | 381 kts | 106° |
| 2026-04-26 20:19 | 40.36441 | -105.48480 | 20265 ft | 382 kts | 106° |
| 2026-04-26 20:20 | 40.35892 | -105.45087 | 19671 ft | 384 kts | 106° |
| 2026-04-26 20:20 | 40.35332 | -105.41645 | 18918 ft | 384 kts | 105° |
| 2026-04-26 20:20 | 40.34624 | -105.38301 | 18552 ft | 372 kts | 112° |
| 2026-04-26 20:20 | 40.33602 | -105.35306 | 18533 ft | 353 kts | 123° |
| 2026-04-26 20:21 | 40.32262 | -105.32719 | 18530 ft | 336 kts | 131° |
| 2026-04-26 20:21 | 40.30847 | -105.30344 | 18531 ft | 329 kts | 133° |
| 2026-04-26 20:21 | 40.29415 | -105.27970 | 18531 ft | 333 kts | 133° |
| 2026-04-26 20:21 | 40.27989 | -105.25585 | 18509 ft | 335 kts | 133° |
| 2026-04-26 20:22 | 40.26552 | -105.23165 | 18508 ft | 336 kts | 133° |
| 2026-04-26 20:22 | 40.25119 | -105.20758 | 18521 ft | 335 kts | 133° |
| 2026-04-26 20:22 | 40.23687 | -105.18343 | 18385 ft | 332 kts | 133° |
| 2026-04-26 20:22 | 40.22286 | -105.15984 | 18007 ft | 330 kts | 133° |
| 2026-04-26 20:23 | 40.20878 | -105.13612 | 17605 ft | 328 kts | 133° |
| 2026-04-26 20:23 | 40.19497 | -105.11292 | 17217 ft | 326 kts | 133° |
| 2026-04-26 20:23 | 40.18091 | -105.08940 | 16821 ft | 324 kts | 133° |
| 2026-04-26 20:23 | 40.16716 | -105.06628 | 16498 ft | 319 kts | 133° |
| 2026-04-26 20:24 | 40.15360 | -105.04340 | 16231 ft | 317 kts | 133° |
| 2026-04-26 20:24 | 40.13966 | -105.02131 | 15956 ft | 318 kts | 137° |
| 2026-04-26 20:24 | 40.12428 | -105.00082 | 15686 ft | 318 kts | 140° |
| 2026-04-26 20:24 | 40.10829 | -104.98061 | 15420 ft | 319 kts | 140° |
| 2026-04-26 20:25 | 40.09248 | -104.96055 | 15158 ft | 318 kts | 139° |
| 2026-04-26 20:25 | 40.08184 | -104.94698 | 14984 ft | 318 kts | 139° |
| 2026-04-26 20:25 | 40.06094 | -104.92017 | 14644 ft | 317 kts | 138° |
| 2026-04-26 20:25 | 40.04507 | -104.89980 | 14388 ft | 317 kts | 138° |
| 2026-04-26 20:26 | 40.02938 | -104.87964 | 14138 ft | 317 kts | 138° |
| 2026-04-26 20:26 | 40.01614 | -104.86264 | 13928 ft | 317 kts | 137° |
| 2026-04-26 20:26 | 40.00249 | -104.84512 | 13713 ft | 317 kts | 137° |
| 2026-04-26 20:26 | 39.98477 | -104.82333 | 13438 ft | 315 kts | 143° |
| 2026-04-26 20:27 | 39.96600 | -104.80849 | 13189 ft | 312 kts | 162° |
| 2026-04-26 20:27 | 39.94638 | -104.80415 | 12967 ft | 308 kts | 181° |
| 2026-04-26 20:27 | 39.92473 | -104.80487 | 12648 ft | 309 kts | 184° |
| 2026-04-26 20:27 | 39.90350 | -104.80573 | 12400 ft | 307 kts | 183° |
| 2026-04-26 20:28 | 39.88197 | -104.80642 | 12157 ft | 308 kts | 183° |
| 2026-04-26 20:28 | 39.86035 | -104.80702 | 11915 ft | 309 kts | 183° |
| 2026-04-26 20:28 | 39.83887 | -104.80759 | 11671 ft | 304 kts | 183° |
| 2026-04-26 20:28 | 39.81808 | -104.80814 | 11432 ft | 297 kts | 182° |
| 2026-04-26 20:29 | 39.79747 | -104.80868 | 11190 ft | 291 kts | 182° |
| 2026-04-26 20:29 | 39.77721 | -104.80919 | 10947 ft | 285 kts | 182° |
| 2026-04-26 20:29 | 39.75754 | -104.80941 | 10715 ft | 280 kts | 181° |
| 2026-04-26 20:29 | 39.73855 | -104.80951 | 10651 ft | 267 kts | 181° |
| 2026-04-26 20:30 | 39.71993 | -104.80964 | 10397 ft | 264 kts | 182° |
| 2026-04-26 20:30 | 39.70145 | -104.80980 | 10038 ft | 266 kts | 181° |
| 2026-04-26 20:30 | 39.68288 | -104.80997 | 9701 ft | 266 kts | 181° |
| 2026-04-26 20:30 | 39.66455 | -104.81014 | 9445 ft | 261 kts | 181° |
| 2026-04-26 20:31 | 39.64648 | -104.81029 | 9134 ft | 257 kts | 182° |
| 2026-04-26 20:31 | 39.62899 | -104.80863 | 8981 ft | 245 kts | 164° |
| 2026-04-26 20:31 | 39.61482 | -104.79803 | 8845 ft | 232 kts | 132° |
| 2026-04-26 20:31 | 39.60726 | -104.78018 | 8463 ft | 225 kts | 98° |
| 2026-04-26 20:32 | 39.60667 | -104.76032 | 8147 ft | 220 kts | 87° |
| 2026-04-26 20:32 | 39.60720 | -104.74084 | 7999 ft | 212 kts | 88° |
| 2026-04-26 20:32 | 39.60814 | -104.72179 | 8002 ft | 212 kts | 86° |
| 2026-04-26 20:32 | 39.61321 | -104.70377 | 7997 ft | 220 kts | 54° |
| 2026-04-26 20:33 | 39.62545 | -104.69164 | 8001 ft | 222 kts | 22° |
| 2026-04-26 20:33 | 39.64070 | -104.68921 | 8006 ft | 220 kts | 356° |
| 2026-04-26 20:33 | 39.65602 | -104.68978 | 8003 ft | 218 kts | 360° |
| 2026-04-26 20:33 | 39.67116 | -104.68948 | 8002 ft | 217 kts | 0° |
| 2026-04-26 20:34 | 39.68636 | -104.68929 | 8001 ft | 218 kts | 360° |
| 2026-04-26 20:34 | 39.70151 | -104.68913 | 7999 ft | 218 kts | 360° |
| 2026-04-26 20:34 | 39.71675 | -104.68894 | 7998 ft | 217 kts | 360° |
| 2026-04-26 20:34 | 39.73149 | -104.68877 | 7924 ft | 204 kts | 360° |
| 2026-04-26 20:35 | 39.74560 | -104.68861 | 7656 ft | 198 kts | 360° |
| 2026-04-26 20:35 | 39.75920 | -104.68845 | 7396 ft | 192 kts | 360° |
| 2026-04-26 20:35 | 39.77252 | -104.68829 | 7132 ft | 190 kts | 360° |
| 2026-04-26 20:35 | 39.78575 | -104.68813 | 6869 ft | 186 kts | 359° |
| 2026-04-26 20:36 | 39.79823 | -104.68797 | 6624 ft | 171 kts | 359° |
| 2026-04-26 20:36 | 39.80951 | -104.68784 | 6399 ft | 158 kts | 359° |
| 2026-04-26 20:36 | 39.82020 | -104.68771 | 6210 ft | 150 kts | 358° |
| 2026-04-26 20:36 | 39.83076 | -104.68767 | 6010 ft | 152 kts | 359° |
| 2026-04-26 20:37 | 39.84127 | -104.68754 | 5791 ft | 148 kts | 358° |
| 2026-04-26 20:37 | 39.85136 | -104.68742 | 5600 ft | 142 kts | 358° |
| 2026-04-26 20:37 | 39.86124 | -104.68724 | 5416 ft | 140 kts | 358° |
| 2026-04-26 20:37 | 39.87069 | -104.68716 | 5341 ft | 121 kts | 359° |
| 2026-04-26 20:38 | 39.87725 | -104.68706 | 5329 ft | 71 kts | 1° |
| 2026-04-26 20:38 | 39.88160 | -104.68701 | 5337 ft | 54 kts | 2° |
| 2026-04-26 20:38 | 39.88531 | -104.68629 | 5364 ft | 55 kts | 30° |